Time;durP1;ratioP1;P1;durP2;ratioP2;P2;SDS_P1;SDS_P2;PMS_P1;PMS_P2;Temp;Humidity;BMP_temperature;BMP_pressure;BME280_temperature;BME280_humidity;BME280_pressure;Samples;Min_cycle;Max_cycle;Signal;HPM_P1;HPM_P2
2022/10/08 00:01:18;;;;;;;1.65;1.30;;;20.70;62.70;;;;;;5089212;27;43426;-60
2022/10/08 00:03:49;;;;;;;1.50;1.40;;;20.60;62.60;;;;;;5085941;27;43497;-59
2022/10/08 00:06:19;;;;;;;1.88;1.35;;;20.60;62.70;;;;;;5085566;27;44165;-60
2022/10/08 00:08:50;;;;;;;1.20;1.10;;;20.60;63.40;;;;;;5085694;27;43486;-60
2022/10/08 00:11:21;;;;;;;1.83;1.13;;;20.60;62.70;;;;;;5086912;27;43474;-60
2022/10/08 00:13:49;;;;;;;1.20;1.08;;;20.60;62.70;;;;;;5086655;27;43509;-60
2022/10/08 00:16:22;;;;;;;2.70;1.30;;;20.60;62.70;;;;;;5085961;27;45020;-60
2022/10/08 00:18:52;;;;;;;2.78;1.30;;;20.60;62.70;;;;;;5088993;27;43433;-60
2022/10/08 00:21:26;;;;;;;1.70;1.17;;;20.60;62.80;;;;;;5091787;27;43539;-60
2022/10/08 00:23:55;;;;;;;1.45;1.30;;;20.60;62.80;;;;;;5087007;27;43436;-60
2022/10/08 00:26:25;;;;;;;1.20;1.10;;;20.60;62.80;;;;;;5086587;27;44079;-60
2022/10/08 00:28:54;;;;;;;1.60;1.15;;;20.60;62.90;;;;;;5088676;27;43481;-59
2022/10/08 00:31:34;;;;;;;1.73;1.30;;;20.60;62.80;;;;;;5086352;27;43529;-60
2022/10/08 00:34:04;;;;;;;1.48;1.27;;;20.60;62.80;;;;;;5086123;27;43497;-59
2022/10/08 00:36:33;;;;;;;1.10;1.00;;;20.60;62.80;;;;;;5085802;27;45008;-60
2022/10/08 00:39:04;;;;;;;1.50;1.30;;;20.60;62.90;;;;;;5076176;28;43928;-59
2022/10/08 00:41:36;;;;;;;2.08;1.13;;;20.50;62.80;;;;;;5070785;27;43450;-60
2022/10/08 00:44:42;;;;;;;2.92;1.40;;;20.50;62.80;;;;;;5087757;27;43494;-60
2022/10/08 00:47:32;;;;;;;1.00;1.00;;;20.50;62.80;;;;;;5091174;27;43895;-60
2022/10/08 00:50:18;;;;;;;1.13;1.10;;;20.50;62.80;;;;;;5107745;27;43454;-60
2022/10/08 00:52:49;;;;;;;2.00;1.10;;;20.50;62.90;;;;;;5115012;27;43432;-60
2022/10/08 00:55:18;;;;;;;;;;;20.50;62.90;;;;;;5115193;27;43435;-60
2022/10/08 00:57:46;;;;;;;1.48;1.38;;;20.50;62.90;;;;;;5110030;27;44983;-60
2022/10/08 01:00:18;;;;;;;1.02;1.02;;;20.50;63.00;;;;;;5088147;27;43990;-59
2022/10/08 01:02:46;;;;;;;1.75;1.20;;;20.50;63.10;;;;;;5106142;27;43448;-60
2022/10/08 01:05:18;;;;;;;1.17;0.90;;;20.50;63.00;;;;;;5106566;27;43525;-59
2022/10/08 01:08:18;;;;;;;1.23;0.85;;;20.50;63.00;;;;;;5107074;27;44783;-59
2022/10/08 01:10:54;;;;;;;1.63;1.15;;;20.50;63.00;;;;;;5095079;27;43976;-59
2022/10/08 01:13:46;;;;;;;1.73;1.02;;;20.50;63.00;;;;;;5106436;27;43405;-60
2022/10/08 01:16:16;;;;;;;1.58;1.00;;;20.50;63.00;;;;;;5088032;27;43617;-60
2022/10/08 01:19:06;;;;;;;0.88;0.88;;;20.50;63.10;;;;;;5108992;27;43853;-60
2022/10/08 01:22:12;;;;;;;1.45;1.10;;;20.50;63.00;;;;;;5106202;27;43629;-60
2022/10/08 01:28:00;;;;;;;1.65;1.02;;;20.40;63.10;;;;;;5112174;27;43609;-60
2022/10/08 01:30:29;;;;;;;1.08;0.98;;;20.50;63.10;;;;;;5100972;27;44051;-59
2022/10/08 01:33:02;;;;;;;1.35;1.00;;;20.40;63.10;;;;;;5109421;27;43368;-59
2022/10/08 01:35:32;;;;;;;1.40;1.27;;;20.40;63.10;;;;;;5109964;27;43407;-60
2022/10/08 01:38:05;;;;;;;0.80;0.80;;;20.40;63.00;;;;;;5110599;27;43504;-59
2022/10/08 01:40:36;;;;;;;1.75;1.20;;;20.40;63.10;;;;;;5108798;27;44970;-59
2022/10/08 01:43:07;;;;;;;1.25;1.05;;;20.40;63.10;;;;;;5122693;27;43663;-60
2022/10/08 01:45:41;;;;;;;1.02;0.93;;;20.40;63.10;;;;;;5110363;27;43415;-60
2022/10/08 01:48:13;;;;;;;0.88;0.80;;;20.40;63.10;;;;;;5109520;27;43514;-60
2022/10/08 01:50:56;;;;;;;1.77;1.23;;;20.40;63.70;;;;;;5089997;27;44698;-59
2022/10/08 01:53:32;;;;;;;1.35;1.00;;;20.40;63.10;;;;;;5089231;27;43449;-60
2022/10/08 01:56:02;;;;;;;1.15;0.90;;;20.40;63.20;;;;;;5114027;27;43415;-59
2022/10/08 01:58:38;;;;;;;1.15;0.90;;;20.40;63.20;;;;;;5108803;27;43456;-59
2022/10/08 02:01:10;;;;;;;0.80;0.80;;;20.40;63.20;;;;;;5112529;27;44007;-59
2022/10/08 02:04:31;;;;;;;0.80;0.80;;;20.40;63.20;;;;;;5116200;27;44226;-59
2022/10/08 02:06:28;;;;;;;1.35;0.88;;;20.40;63.20;;;;;;5108562;27;43412;-60
2022/10/08 02:08:55;;;;;;;0.93;0.93;;;20.40;63.20;;;;;;5112492;27;43447;-59
2022/10/08 02:11:23;;;;;;;1.38;0.90;;;20.30;63.10;;;;;;5107976;27;45146;-60
2022/10/08 02:13:50;;;;;;;1.08;0.85;;;20.30;63.10;;;;;;5108741;27;43502;-60
2022/10/08 02:16:26;;;;;;;1.17;1.02;;;20.30;63.10;;;;;;5108717;27;43410;-59
2022/10/08 02:19:00;;;;;;;0.88;0.80;;;20.40;63.20;;;;;;5108296;27;43507;-59
2022/10/08 02:21:29;;;;;;;1.10;1.00;;;20.30;63.10;;;;;;5108412;27;43909;-60
2022/10/08 02:24:18;;;;;;;1.10;1.00;;;20.30;63.20;;;;;;5108753;27;43986;-59
2022/10/08 02:26:52;;;;;;;0.80;0.80;;;20.30;63.10;;;;;;5109096;27;43435;-59
2022/10/08 02:29:35;;;;;;;0.93;0.82;;;20.30;63.10;;;;;;5108648;27;43533;-59
2022/10/08 02:32:28;;;;;;;1.23;0.80;;;20.30;63.20;;;;;;5107399;27;44974;-59
2022/10/08 02:35:18;;;;;;;0.65;0.60;;;20.30;63.10;;;;;;5109026;27;43407;-59
2022/10/08 02:37:55;;;;;;;1.02;0.93;;;20.30;63.20;;;;;;5089962;27;43378;-59
2022/10/08 02:40:23;;;;;;;1.77;0.98;;;20.30;63.20;;;;;;5111094;27;43531;-59
2022/10/08 02:42:56;;;;;;;0.90;0.90;;;20.30;63.10;;;;;;5111802;27;44028;-59
2022/10/08 02:45:29;;;;;;;1.38;0.90;;;20.30;63.30;;;;;;5106972;27;43420;-59
2022/10/08 02:48:05;;;;;;;1.30;0.90;;;20.30;63.20;;;;;;5109205;27;43427;-59
2022/10/08 02:50:35;;;;;;;0.95;0.77;;;20.30;63.20;;;;;;5088512;27;43522;-59
2022/10/08 02:53:03;;;;;;;1.73;1.00;;;20.30;63.20;;;;;;5107541;27;44061;-59
2022/10/08 02:55:36;;;;;;;0.80;0.80;;;20.30;63.20;;;;;;5105701;27;43375;-59
2022/10/08 02:58:07;;;;;;;1.63;0.80;;;20.20;63.20;;;;;;5092716;27;43419;-59
2022/10/08 03:00:48;;;;;;;1.20;1.10;;;20.20;63.10;;;;;;5107168;27;43503;-59
2022/10/08 03:03:24;;;;;;;0.90;0.90;;;20.20;63.20;;;;;;5107886;27;44626;-60
2022/10/08 03:05:52;;;;;;;1.15;0.90;;;20.20;63.20;;;;;;5110302;27;43970;-59
2022/10/08 03:08:20;;;;;;;0.80;0.75;;;20.20;63.20;;;;;;5090199;27;43513;-59
2022/10/08 03:10:48;;;;;;;1.88;1.08;;;20.20;63.10;;;;;;5107817;27;43642;-59
2022/10/08 03:13:17;;;;;;;1.20;0.90;;;20.20;63.10;;;;;;5107892;27;43878;-59
2022/10/08 03:15:47;;;;;;;1.33;0.90;;;20.20;63.20;;;;;;5109794;27;43439;-59
2022/10/08 03:18:15;;;;;;;1.07;0.97;;;20.20;63.20;;;;;;5107257;27;43459;-59
2022/10/08 03:20:47;;;;;;;1.85;0.73;;;20.20;63.20;;;;;;5112700;27;43484;-60
2022/10/08 03:23:17;;;;;;;1.02;0.70;;;20.20;63.10;;;;;;5107545;27;45314;-59
2022/10/08 03:25:44;;;;;;;1.27;0.80;;;20.20;63.20;;;;;;5108016;27;44067;-59
2022/10/08 03:28:12;;;;;;;1.02;0.80;;;20.20;63.20;;;;;;5104244;27;43505;-60
2022/10/08 03:30:39;;;;;;;1.38;0.70;;;20.20;63.20;;;;;;5107662;27;43923;-59
2022/10/08 03:33:07;;;;;;;1.40;0.70;;;20.20;63.20;;;;;;5089479;27;44989;-59
2022/10/08 03:35:34;;;;;;;1.23;0.90;;;20.20;63.20;;;;;;5088573;27;43971;-59
2022/10/08 03:38:02;;;;;;;0.50;0.50;;;20.10;63.10;;;;;;5107818;27;43478;-59
2022/10/08 03:40:29;;;;;;;1.33;0.90;;;20.10;63.10;;;;;;5088793;27;44073;-60
2022/10/08 03:42:57;;;;;;;0.85;0.60;;;20.10;63.10;;;;;;5119792;27;44657;-59
2022/10/08 03:45:24;;;;;;;1.33;0.80;;;20.10;63.10;;;;;;5105865;27;43720;-59
2022/10/08 03:47:51;;;;;;;1.92;1.00;;;20.10;63.20;;;;;;5107471;27;43485;-59
2022/10/08 03:50:20;;;;;;;0.80;0.80;;;20.10;63.10;;;;;;5106304;27;43593;-59
2022/10/08 03:52:48;;;;;;;0.95;0.77;;;20.10;63.20;;;;;;5106807;27;44979;-59
2022/10/08 03:55:16;;;;;;;1.55;1.00;;;20.10;63.20;;;;;;5111351;27;43537;-59
2022/10/08 03:57:44;;;;;;;0.90;0.80;;;20.10;63.10;;;;;;5106587;27;43437;-59
2022/10/08 04:00:12;;;;;;;1.45;0.80;;;20.10;63.20;;;;;;5107469;27;43557;-59
2022/10/08 04:02:39;;;;;;;1.38;0.90;;;20.10;63.20;;;;;;5106146;27;44944;-59
2022/10/08 04:05:07;;;;;;;1.85;0.93;;;20.10;63.20;;;;;;5109600;27;43470;-59
2022/10/08 04:07:34;;;;;;;2.60;1.58;;;20.10;63.30;;;;;;5107025;27;43425;-59
2022/10/08 04:10:02;;;;;;;0.75;0.75;;;20.10;63.90;;;;;;5106497;27;43611;-60
2022/10/08 04:12:29;;;;;;;1.15;0.70;;;20.10;63.30;;;;;;5107240;27;43600;-59
2022/10/08 04:14:57;;;;;;;1.35;0.90;;;20.10;63.20;;;;;;5110010;27;43312;-59
2022/10/08 04:17:24;;;;;;;1.00;0.90;;;20.00;63.20;;;;;;5106434;27;43425;-60
2022/10/08 04:19:52;;;;;;;1.05;0.90;;;20.00;63.20;;;;;;5087678;27;43609;-60
2022/10/08 04:22:19;;;;;;;1.27;0.82;;;20.00;63.10;;;;;;5107192;27;44782;-59
2022/10/08 04:24:46;;;;;;;1.40;1.00;;;20.00;63.20;;;;;;5108977;27;43807;-59
2022/10/08 04:27:14;;;;;;;1.27;0.90;;;20.00;63.10;;;;;;5107299;27;43455;-59
2022/10/08 04:29:41;;;;;;;2.03;0.80;;;20.00;63.10;;;;;;5106711;27;43609;-59
2022/10/08 04:32:09;;;;;;;1.77;0.80;;;20.10;63.20;;;;;;5088326;27;44777;-59
2022/10/08 04:34:36;;;;;;;0.98;0.88;;;20.00;63.10;;;;;;5109422;27;43413;-59
2022/10/08 04:37:03;;;;;;;0.95;0.93;;;20.00;63.10;;;;;;5106969;27;43457;-59
2022/10/08 04:39:31;;;;;;;0.95;0.88;;;20.00;63.10;;;;;;5105723;27;43584;-59
2022/10/08 04:41:58;;;;;;;0.80;0.80;;;20.00;63.20;;;;;;5110410;27;43790;-59
2022/10/08 04:44:25;;;;;;;2.00;0.90;;;20.00;63.10;;;;;;5109641;27;43467;-59
2022/10/08 04:46:54;;;;;;;1.08;0.98;;;20.00;63.10;;;;;;5106386;27;43377;-59
2022/10/08 04:49:21;;;;;;;1.15;0.90;;;20.00;63.20;;;;;;5106681;27;43549;-59
2022/10/08 04:51:49;;;;;;;1.88;0.80;;;20.00;63.20;;;;;;5088397;27;45002;-60
2022/10/08 04:54:16;;;;;;;2.00;1.45;;;19.90;63.10;;;;;;5108990;27;44298;-59
2022/10/08 04:56:44;;;;;;;1.30;1.00;;;20.00;63.20;;;;;;5109067;27;43425;-59
2022/10/08 04:59:11;;;;;;;1.95;1.20;;;19.90;63.10;;;;;;5109752;27;43521;-59
2022/10/08 05:01:38;;;;;;;1.35;0.77;;;20.00;63.20;;;;;;5109511;27;44773;-59
2022/10/08 05:04:06;;;;;;;1.27;0.80;;;19.90;63.10;;;;;;5116442;27;43805;-60
2022/10/08 05:06:34;;;;;;;1.55;0.80;;;19.90;63.10;;;;;;5117325;27;43377;-59
2022/10/08 05:09:02;;;;;;;0.80;0.80;;;20.00;63.10;;;;;;5117615;27;43448;-59
2022/10/08 05:11:31;;;;;;;1.90;0.95;;;19.90;63.00;;;;;;5123375;27;43563;-59
2022/10/08 05:13:59;;;;;;;0.95;0.70;;;19.90;63.10;;;;;;5109864;27;44027;-59
2022/10/08 05:16:26;;;;;;;1.30;0.88;;;19.90;63.10;;;;;;5112070;27;43450;-59
2022/10/08 05:18:55;;;;;;;1.35;0.80;;;19.90;63.20;;;;;;5120657;27;43413;-59
2022/10/08 05:21:27;;;;;;;1.00;0.82;;;19.90;63.10;;;;;;5099400;27;44970;-59
2022/10/08 05:24:03;;;;;;;2.03;0.75;;;19.90;63.10;;;;;;5120595;27;43552;-60
2022/10/08 05:26:35;;;;;;;1.63;1.02;;;19.90;63.20;;;;;;5113341;27;44121;-59
2022/10/08 05:29:23;;;;;;;0.95;0.80;;;19.90;63.10;;;;;;5122192;27;43645;-59
2022/10/08 05:31:50;;;;;;;2.67;1.17;;;19.90;63.20;;;;;;5123307;27;43610;-59
2022/10/08 05:34:18;;;;;;;1.05;0.80;;;19.80;63.10;;;;;;5110026;27;43982;-59
2022/10/08 05:36:45;;;;;;;1.27;0.90;;;19.90;63.10;;;;;;5118214;27;43430;-59
2022/10/08 05:39:13;;;;;;;1.58;1.17;;;19.80;63.10;;;;;;5119801;27;43536;-59
2022/10/08 05:41:40;;;;;;;1.35;1.00;;;19.80;63.10;;;;;;5124614;27;43891;-59
2022/10/08 05:44:10;;;;;;;1.60;0.90;;;19.90;63.20;;;;;;5115637;27;44067;-59
2022/10/08 05:46:37;;;;;;;1.25;1.00;;;19.80;63.10;;;;;;5120183;27;43480;-59
2022/10/08 05:49:07;;;;;;;1.58;0.98;;;19.80;63.10;;;;;;5119943;27;43419;-60
2022/10/08 05:51:35;;;;;;;1.67;1.10;;;19.80;63.10;;;;;;5109056;27;43870;-59
2022/10/08 05:54:02;;;;;;;1.25;0.90;;;19.80;63.10;;;;;;5112442;27;43502;-58
2022/10/08 05:56:30;;;;;;;1.95;0.98;;;19.80;63.20;;;;;;5120616;27;43577;-58
2022/10/08 05:58:58;;;;;;;2.45;0.95;;;19.80;63.20;;;;;;5106761;27;43518;-58
2022/10/08 06:01:28;;;;;;;2.15;1.00;;;19.80;63.20;;;;;;5110260;27;45000;-59
2022/10/08 06:04:01;;;;;;;1.90;1.20;;;19.80;63.20;;;;;;5115624;27;43417;-58
2022/10/08 06:06:36;;;;;;;2.45;0.90;;;19.80;63.20;;;;;;5120750;27;43424;-59
2022/10/08 06:09:04;;;;;;;1.85;0.98;;;19.80;63.20;;;;;;5109448;27;43400;-58
2022/10/08 06:11:34;;;;;;;2.47;1.08;;;19.80;63.30;;;;;;5108553;27;44107;-58
2022/10/08 06:14:02;;;;;;;2.50;1.00;;;19.70;63.20;;;;;;5115525;27;43481;-58
2022/10/08 06:16:30;;;;;;;2.50;0.98;;;19.70;63.20;;;;;;5124229;27;43481;-58
2022/10/08 06:18:57;;;;;;;1.58;0.93;;;19.70;63.20;;;;;;5108376;27;43433;-58
2022/10/08 06:21:25;;;;;;;1.65;0.88;;;19.70;63.30;;;;;;5112973;27;44964;-58
2022/10/08 06:23:59;;;;;;;0.90;0.73;;;19.70;63.20;;;;;;5121974;27;43504;-58
2022/10/08 06:26:29;;;;;;;2.22;1.10;;;19.70;63.30;;;;;;5110737;27;43417;-59
2022/10/08 06:29:04;;;;;;;2.17;1.10;;;19.70;63.30;;;;;;5110946;27;43455;-58
2022/10/08 06:31:33;;;;;;;2.08;1.17;;;19.70;63.30;;;;;;5115557;27;44076;-59
2022/10/08 06:34:03;;;;;;;1.80;1.10;;;19.70;63.30;;;;;;5123381;27;43677;-58
2022/10/08 06:36:32;;;;;;;1.90;1.10;;;19.70;63.30;;;;;;5118909;27;43464;-59
2022/10/08 06:39:03;;;;;;;1.75;1.23;;;19.70;63.90;;;;;;5092822;27;43550;-58
2022/10/08 06:41:33;;;;;;;1.40;0.93;;;19.70;63.30;;;;;;5115781;27;43732;-59
2022/10/08 06:44:03;;;;;;;1.10;1.00;;;19.70;63.30;;;;;;5123975;27;43667;-58
2022/10/08 06:46:31;;;;;;;1.00;0.80;;;19.70;63.30;;;;;;5110436;27;43435;-59
2022/10/08 06:49:00;;;;;;;1.83;0.90;;;19.70;63.30;;;;;;5112473;27;43530;-59
2022/10/08 06:51:28;;;;;;;1.88;0.90;;;19.70;63.40;;;;;;5098479;27;44201;-59
2022/10/08 06:53:57;;;;;;;0.95;0.85;;;19.70;63.30;;;;;;5111798;27;43444;-59
2022/10/08 06:56:34;;;;;;;1.67;1.10;;;19.70;63.30;;;;;;5117099;27;43428;-58
2022/10/08 06:59:04;;;;;;;1.60;1.15;;;19.70;63.30;;;;;;5112659;27;43407;-58
2022/10/08 07:01:31;;;;;;;2.13;0.93;;;19.70;63.40;;;;;;5121444;27;43908;-58
2022/10/08 07:04:02;;;;;;;1.60;1.00;;;19.70;63.30;;;;;;5105512;27;43410;-59
2022/10/08 07:06:29;;;;;;;2.60;1.17;;;19.70;63.30;;;;;;5119301;27;43399;-59
2022/10/08 07:08:59;;;;;;;2.40;1.00;;;19.70;63.30;;;;;;5116110;27;43521;-59
2022/10/08 07:11:29;;;;;;;1.58;1.08;;;19.70;63.40;;;;;;5121089;27;43890;-58
2022/10/08 07:13:57;;;;;;;1.77;0.90;;;19.70;63.40;;;;;;5114554;27;43789;-58
2022/10/08 07:16:26;;;;;;;1.65;1.10;;;19.60;64.00;;;;;;5121776;27;43453;-59
2022/10/08 07:18:57;;;;;;;1.55;1.00;;;19.70;63.40;;;;;;5117233;27;43546;-59
2022/10/08 07:21:27;;;;;;;2.17;0.98;;;19.70;63.30;;;;;;5111559;27;43593;-59
2022/10/08 07:23:54;;;;;;;1.20;1.10;;;19.70;63.40;;;;;;5081774;27;43975;-59
2022/10/08 07:26:24;;;;;;;1.50;0.90;;;19.60;63.30;;;;;;5107592;27;43483;-59
2022/10/08 07:28:55;;;;;;;2.20;1.00;;;19.60;63.30;;;;;;5089010;27;44140;-58
2022/10/08 07:31:28;;;;;;;1.38;0.90;;;19.60;63.40;;;;;;5116213;27;44702;-59
2022/10/08 07:33:59;;;;;;;1.65;1.05;;;19.60;63.30;;;;;;5117355;27;43448;-59
2022/10/08 07:36:27;;;;;;;;;;;19.60;63.30;;;;;;5097357;27;43451;-59
2022/10/08 07:38:56;;;;;;;1.30;0.82;;;19.60;63.30;;;;;;5110893;27;43616;-59
2022/10/08 07:41:25;;;;;;;0.82;0.82;;;19.60;63.40;;;;;;5113144;27;45304;-58
2022/10/08 07:43:55;;;;;;;1.85;1.10;;;19.60;63.40;;;;;;5119712;27;43492;-59
2022/10/08 07:46:22;;;;;;;1.23;0.82;;;19.60;63.40;;;;;;5114596;27;43548;-60
2022/10/08 07:48:53;;;;;;;1.50;0.95;;;19.60;63.60;;;;;;5111905;27;43447;-62
2022/10/08 07:51:21;;;;;;;3.55;1.30;;;19.60;63.50;;;;;;5114508;27;44077;-60
2022/10/08 07:53:49;;;;;;;1.60;1.50;;;19.60;63.60;;;;;;5121028;27;43955;-58
2022/10/08 07:56:18;;;;;;;3.83;1.98;;;19.60;63.50;;;;;;5108556;27;44015;-59
2022/10/08 07:58:47;;;;;;;2.10;1.92;;;19.60;64.10;;;;;;5114406;27;43541;-59
2022/10/08 08:01:20;;;;;;;2.55;1.83;;;19.70;63.60;;;;;;5116544;27;44789;-59
2022/10/08 08:03:55;;;;;;;2.15;1.60;;;19.70;63.50;;;;;;5088370;27;43418;-59
2022/10/08 08:06:23;;;;;;;3.13;1.60;;;19.80;63.60;;;;;;5095393;27;43532;-60
2022/10/08 08:08:55;;;;;;;1.70;1.50;;;19.90;63.60;;;;;;5095114;27;43648;-60
2022/10/08 08:11:29;;;;;;;2.05;1.60;;;20.00;63.50;;;;;;5085021;27;44043;-60
2022/10/08 08:13:56;;;;;;;1.95;1.65;;;20.10;63.40;;;;;;5116685;27;43489;-60
2022/10/08 08:16:28;;;;;;;2.67;1.50;;;20.20;63.30;;;;;;5076621;27;43534;-61
2022/10/08 08:18:59;;;;;;;3.42;1.65;;;20.40;63.30;;;;;;5111968;27;43499;-60
2022/10/08 08:21:32;;;;;;;1.58;1.40;;;20.50;63.20;;;;;;5115077;27;43792;-60
2022/10/08 08:24:18;;;;;;;2.40;1.50;;;20.70;63.00;;;;;;5116233;27;43950;-60
2022/10/08 08:26:45;;;;;;;2.13;1.00;;;20.80;62.90;;;;;;5115915;27;43399;-60
2022/10/08 08:29:16;;;;;;;1.65;1.30;;;20.90;62.60;;;;;;5115650;27;43552;-59
2022/10/08 08:31:45;;;;;;;4.22;1.25;;;21.00;62.70;;;;;;5104577;27;44977;-62
2022/10/08 08:34:19;;;;;;;2.55;1.35;;;21.20;62.70;;;;;;5115403;27;44427;-60
2022/10/08 08:36:48;;;;;;;3.17;1.23;;;21.30;62.60;;;;;;5120093;27;43419;-61
2022/10/08 08:39:18;;;;;;;1.75;1.02;;;21.40;62.60;;;;;;5117231;27;43552;-61
2022/10/08 08:42:07;;;;;;;3.43;1.40;;;21.50;61.90;;;;;;5121070;27;44077;-61
2022/10/08 08:44:41;;;;;;;1.67;1.23;;;21.60;62.00;;;;;;5114611;27;43824;-60
2022/10/08 08:47:30;;;;;;;2.75;1.30;;;21.70;61.80;;;;;;5118083;27;43437;-60
2022/10/08 08:50:03;;;;;;;2.97;1.25;;;21.80;61.50;;;;;;5113530;27;43529;-61
2022/10/08 08:52:33;;;;;;;1.85;1.08;;;21.90;61.60;;;;;;5113708;27;44952;-61
2022/10/08 08:55:01;;;;;;;2.75;1.20;;;22.00;61.20;;;;;;5122401;27;43497;-61
2022/10/08 08:57:50;;;;;;;1.88;1.20;;;22.10;61.30;;;;;;5116505;27;43451;-61
2022/10/08 09:00:21;;;;;;;1.73;1.20;;;22.20;60.80;;;;;;5116318;27;43466;-61
2022/10/08 09:03:02;;;;;;;1.63;1.10;;;22.30;60.90;;;;;;5121376;27;44034;-62
2022/10/08 09:05:37;;;;;;;1.98;1.20;;;22.40;60.50;;;;;;5113047;27;43668;-61
2022/10/08 09:08:19;;;;;;;1.90;1.02;;;22.50;60.50;;;;;;5124571;27;43415;-60
2022/10/08 09:10:55;;;;;;;1.50;0.70;;;22.50;60.20;;;;;;5115257;27;43399;-60
2022/10/08 09:13:43;;;;;;;1.85;1.02;;;22.60;60.10;;;;;;5115010;27;44056;-60
2022/10/08 09:16:12;;;;;;;2.40;0.90;;;22.70;60.00;;;;;;5121854;27;44005;-59
2022/10/08 09:18:46;;;;;;;2.28;1.33;;;22.70;59.80;;;;;;5123779;27;43488;-60
2022/10/08 09:21:14;;;;;;;2.35;0.98;;;22.80;59.60;;;;;;5111945;27;43516;-60
2022/10/08 09:23:42;;;;;;;2.72;1.00;;;22.80;59.60;;;;;;5119062;27;44086;-60
2022/10/08 09:26:21;;;;;;;0.95;0.80;;;22.90;59.50;;;;;;5119040;27;43487;-59
2022/10/08 09:28:56;;;;;;;1.75;0.80;;;22.90;59.20;;;;;;5109083;27;43437;-60
2022/10/08 09:31:23;;;;;;;2.50;1.20;;;23.00;59.30;;;;;;5098740;27;43484;-60
2022/10/08 09:34:05;;;;;;;2.85;1.00;;;23.00;59.20;;;;;;5117773;27;44856;-60
2022/10/08 09:36:40;;;;;;;2.88;1.20;;;23.00;59.20;;;;;;5113993;27;43801;-59
2022/10/08 09:39:17;;;;;;;1.08;0.77;;;23.00;59.20;;;;;;5118149;27;43959;-60
2022/10/08 09:41:46;;;;;;;2.58;1.20;;;22.90;59.30;;;;;;5099312;27;43590;-60
2022/10/08 09:44:18;;;;;;;3.03;1.50;;;22.90;59.40;;;;;;5102416;27;45030;-60
2022/10/08 09:46:47;;;;;;;3.65;1.80;;;22.90;59.30;;;;;;5101546;27;43415;-60
2022/10/08 09:49:26;;;;;;;3.95;1.98;;;22.90;59.20;;;;;;5119266;27;43404;-59
2022/10/08 09:51:56;;;;;;;4.50;1.83;;;22.90;59.20;;;;;;5118650;27;44068;-59
2022/10/08 09:54:28;;;;;;;3.83;2.00;;;22.80;59.30;;;;;;5119880;27;45301;-59
2022/10/08 09:56:58;;;;;;;4.63;2.47;;;22.80;59.30;;;;;;5117792;27;43696;-59
2022/10/08 09:59:32;;;;;;;6.50;2.20;;;22.80;59.50;;;;;;5097668;27;43443;-59
2022/10/08 10:02:00;;;;;;;4.20;2.20;;;22.80;59.50;;;;;;5116997;27;43442;-60
2022/10/08 10:04:37;;;;;;;3.42;1.80;;;22.70;59.40;;;;;;5119275;27;43608;-60
2022/10/08 10:07:05;;;;;;;3.72;2.10;;;22.70;59.70;;;;;;5118822;27;43462;-60
2022/10/08 10:09:36;;;;;;;4.40;2.22;;;22.70;59.70;;;;;;5118083;27;43468;-59
2022/10/08 10:12:03;;;;;;;;;;;22.70;59.60;;;;;;5097788;27;43541;-60
2022/10/08 10:14:55;;;;;;;3.42;2.17;;;22.70;59.60;;;;;;5117198;27;44007;-60
2022/10/08 10:17:58;;;;;;;6.13;2.72;;;22.60;59.70;;;;;;5119942;27;43446;-59
2022/10/08 10:20:53;;;;;;;4.03;2.40;;;22.70;59.70;;;;;;5118954;27;43479;-60
2022/10/08 10:23:27;;;;;;;4.28;2.47;;;22.60;59.70;;;;;;5116522;27;43649;-59
2022/10/08 10:26:20;;;;;;;5.30;2.65;;;22.70;59.90;;;;;;5114860;27;43620;-59
2022/10/08 10:28:59;;;;;;;3.60;2.20;;;22.70;59.80;;;;;;5119020;27;43383;-60
2022/10/08 10:31:42;;;;;;;4.10;2.33;;;22.60;59.70;;;;;;5113393;27;43424;-60
2022/10/08 10:34:20;;;;;;;3.88;2.33;;;22.60;59.90;;;;;;5111155;27;43473;-60
2022/10/08 10:36:54;;;;;;;3.95;2.30;;;22.60;59.80;;;;;;5114052;27;44859;-59
2022/10/08 10:39:52;;;;;;;6.65;2.53;;;22.60;59.90;;;;;;5116094;27;43404;-60
2022/10/08 10:42:32;;;;;;;5.28;2.50;;;22.60;59.90;;;;;;5114800;27;43461;-60
2022/10/08 10:45:23;;;;;;;3.90;2.13;;;22.60;60.00;;;;;;5111308;27;43477;-60
2022/10/08 10:47:52;;;;;;;;;;;22.50;60.00;;;;;;5121128;27;43815;-59
2022/10/08 10:50:39;;;;;;;5.15;2.42;;;22.50;60.00;;;;;;5120694;27;43460;-59
2022/10/08 10:53:30;;;;;;;5.00;2.30;;;22.40;60.00;;;;;;5091269;27;43444;-59
2022/10/08 10:56:27;;;;;;;4.65;2.33;;;22.50;60.30;;;;;;5121461;27;43471;-59
2022/10/08 10:59:16;;;;;;;5.28;2.67;;;22.40;60.10;;;;;;5086361;27;44773;-59
2022/10/08 11:02:02;;;;;;;5.85;2.63;;;22.40;60.00;;;;;;5120434;27;43479;-59
2022/10/08 11:05:03;;;;;;;4.30;2.58;;;22.40;60.10;;;;;;5113075;27;43526;-61
2022/10/08 11:07:55;;;;;;;4.03;2.30;;;22.40;60.20;;;;;;5122776;27;43457;-59
2022/10/08 11:10:47;;;;;;;5.50;2.60;;;22.30;60.30;;;;;;5108613;27;43883;-59
2022/10/08 11:13:58;;;;;;;4.32;2.42;;;22.30;60.50;;;;;;5120371;27;43469;-59
2022/10/08 11:16:49;;;;;;;4.20;2.20;;;22.30;60.40;;;;;;5118289;27;43408;-59
2022/10/08 11:19:19;;;;;;;4.45;2.40;;;22.30;60.60;;;;;;5121146;27;43398;-59
2022/10/08 11:21:52;;;;;;;5.07;2.55;;;22.30;60.70;;;;;;5115152;27;43749;-59
2022/10/08 11:24:55;;;;;;;3.53;2.00;;;22.30;60.60;;;;;;5115026;27;43776;-59
2022/10/08 11:27:40;;;;;;;3.40;2.17;;;22.30;60.60;;;;;;5078877;27;43610;-59
2022/10/08 11:30:13;;;;;;;3.75;2.20;;;22.30;60.60;;;;;;5095158;27;43464;-59
2022/10/08 11:32:44;;;;;;;4.40;2.25;;;22.30;60.60;;;;;;5091970;27;44221;-59
2022/10/08 11:35:30;;;;;;;4.70;2.08;;;22.30;60.60;;;;;;5115176;27;43498;-59
2022/10/08 11:38:15;;;;;;;4.43;2.22;;;22.40;60.50;;;;;;5112337;27;43438;-59
2022/10/08 11:41:00;;;;;;;4.75;2.20;;;22.40;60.50;;;;;;5115953;27;43468;-59
2022/10/08 11:43:37;;;;;;;6.50;2.40;;;22.40;60.50;;;;;;5116680;27;43899;-60
2022/10/08 11:46:30;;;;;;;4.97;2.28;;;22.40;60.50;;;;;;5106855;27;43442;-59
2022/10/08 11:49:12;;;;;;;3.42;1.92;;;22.30;60.40;;;;;;5120298;27;44030;-59
2022/10/08 11:51:45;;;;;;;5.38;2.22;;;22.30;60.40;;;;;;5090445;27;43463;-59
2022/10/08 11:54:20;;;;;;;3.28;2.00;;;22.30;60.40;;;;;;5096089;27;44671;-59
2022/10/08 11:57:08;;;;;;;2.95;1.73;;;22.30;60.40;;;;;;5110884;27;44131;-59
2022/10/08 11:59:40;;;;;;;4.25;1.83;;;22.30;60.40;;;;;;5115080;27;43472;-59
2022/10/08 12:02:28;;;;;;;4.20;1.95;;;22.30;60.50;;;;;;5119001;27;43484;-59
2022/10/08 12:05:35;;;;;;;3.67;1.90;;;22.30;60.50;;;;;;5104155;27;43852;-59
2022/10/08 12:08:04;;;;;;;3.63;2.00;;;22.40;60.50;;;;;;5111758;27;43429;-59
2022/10/08 12:10:39;;;;;;;4.43;2.55;;;22.40;60.50;;;;;;5115690;27;43444;-59
2022/10/08 12:13:09;;;;;;;2.53;1.70;;;22.40;60.50;;;;;;5119750;27;43470;-58
2022/10/08 12:15:43;;;;;;;3.35;1.77;;;22.40;60.40;;;;;;5107152;27;43798;-58
2022/10/08 12:18:21;;;;;;;4.43;1.90;;;22.40;60.50;;;;;;5117206;27;43694;-58
2022/10/08 12:21:20;;;;;;;5.82;2.17;;;22.40;60.40;;;;;;5117323;27;43402;-58
2022/10/08 12:23:47;;;;;;;4.32;2.03;;;22.40;60.50;;;;;;5105811;27;44076;-58
2022/10/08 12:26:16;;;;;;;4.57;2.20;;;22.30;60.40;;;;;;5096268;27;44646;-59
2022/10/08 12:28:49;;;;;;;2.70;1.50;;;22.40;60.50;;;;;;5116827;27;43447;-58
2022/10/08 12:31:25;;;;;;;3.10;1.58;;;22.40;60.50;;;;;;5106651;27;43397;-59
2022/10/08 12:33:56;;;;;;;3.70;1.90;;;22.40;60.50;;;;;;5091721;27;43396;-59
2022/10/08 12:36:54;;;;;;;2.03;1.30;;;22.40;60.50;;;;;;5119013;27;43604;-59
2022/10/08 12:39:39;;;;;;;2.85;1.55;;;22.40;60.50;;;;;;5114152;27;43944;-59
2022/10/08 12:42:25;;;;;;;3.50;1.60;;;22.40;60.40;;;;;;5115136;27;43364;-59
2022/10/08 12:44:59;;;;;;;2.92;1.83;;;22.40;60.40;;;;;;5116683;27;43529;-59
2022/10/08 12:47:32;;;;;;;3.75;1.63;;;22.40;60.40;;;;;;5113427;27;43775;-59
2022/10/08 12:50:23;;;;;;;3.70;1.80;;;22.40;60.40;;;;;;5121525;27;44029;-59
2022/10/08 12:52:51;;;;;;;3.72;1.73;;;22.40;60.40;;;;;;5104242;27;43493;-59
2022/10/08 12:55:22;;;;;;;3.13;1.73;;;22.40;60.40;;;;;;5119720;27;43464;-59
2022/10/08 12:57:50;;;;;;;4.68;1.80;;;22.40;60.30;;;;;;5116136;27;45154;-59
2022/10/08 13:00:22;;;;;;;2.35;1.45;;;22.40;60.40;;;;;;5107489;27;43668;-59
2022/10/08 13:03:02;;;;;;;3.65;1.98;;;22.40;60.30;;;;;;5115853;27;43401;-59
2022/10/08 13:05:40;;;;;;;2.80;1.58;;;22.40;60.30;;;;;;5113409;27;43455;-59
2022/10/08 13:08:26;;;;;;;2.83;1.30;;;22.40;60.20;;;;;;5102751;27;43882;-58
2022/10/08 13:10:54;;;;;;;2.65;1.45;;;22.40;60.10;;;;;;5123171;27;43486;-59
2022/10/08 13:13:41;;;;;;;2.85;1.48;;;22.40;60.30;;;;;;5111829;27;43459;-59
2022/10/08 13:16:12;;;;;;;4.25;1.48;;;22.40;60.20;;;;;;5118669;27;43983;-59
2022/10/08 13:18:42;;;;;;;2.55;1.48;;;22.40;60.10;;;;;;5120117;27;43818;-59
2022/10/08 13:21:31;;;;;;;3.90;1.70;;;22.50;60.20;;;;;;5123670;27;44026;-59
2022/10/08 13:24:01;;;;;;;3.08;1.50;;;22.40;60.30;;;;;;5116198;27;43543;-59
2022/10/08 13:26:48;;;;;;;2.97;1.75;;;22.40;60.30;;;;;;5121715;27;43457;-59